Time;durP1;ratioP1;P1;durP2;ratioP2;P2;SDS_P1;SDS_P2;PMS_P1;PMS_P2;Temp;Humidity;BMP_temperature;BMP_pressure;BME280_temperature;BME280_humidity;BME280_pressure;Samples;Min_cycle;Max_cycle;Signal;HPM_P1;HPM_P2
2023/08/11 00:01:26;;;;;;;;;;;;;;;25.77;46.41;101903.03;4954970;29;19914;-76
2023/08/11 00:03:52;;;;;;;;;;;;;;;25.75;46.80;101907.25;4950945;29;19922;-74
2023/08/11 00:06:17;;;;;;;;;;;;;;;25.72;46.78;101905.94;4947427;29;19938;-74
2023/08/11 00:08:42;;;;;;;;;;;;;;;25.70;46.70;101899.91;4954106;28;19996;-73
2023/08/11 00:11:08;;;;;;;;;;;;;;;25.68;46.64;101902.19;4954219;29;19922;-75
2023/08/11 00:13:33;;;;;;;;;;;;;;;25.65;46.42;101897.28;4951396;28;19929;-81
2023/08/11 00:16:01;;;;;;;;;;;;;;;25.63;46.69;101899.56;4953359;29;19998;-75
2023/08/11 00:18:26;;;;;;;;;;;;;;;25.61;46.42;101896.28;4952654;29;19926;-75
2023/08/11 00:20:51;;;;;;;;;;;;;;;25.57;46.33;101896.09;4951089;29;20375;-76
2023/08/11 00:23:16;;;;;;;;;;;;;;;25.55;46.57;101901.16;4953478;28;19922;-81
2023/08/11 00:25:42;;;;;;;;;;;;;;;25.54;46.30;101895.91;4950077;29;19953;-73
2023/08/11 00:28:07;;;;;;;;;;;;;;;25.51;46.85;101896.56;4953563;29;20438;-73
2023/08/11 00:30:32;;;;;;;;;;;;;;;25.47;46.55;101888.88;4968266;28;19929;-75
2023/08/11 00:32:57;;;;;;;;;;;;;;;25.44;46.76;101886.75;4965035;28;19974;-72
2023/08/11 00:35:23;;;;;;;;;;;;;;;25.42;46.48;101890.97;4945853;29;19922;-73
2023/08/11 00:37:48;;;;;;;;;;;;;;;25.40;46.75;101893.22;4953066;28;19966;-74
2023/08/11 00:40:14;;;;;;;;;;;;;;;25.38;46.60;101881.69;4954394;29;19922;-74
2023/08/11 00:42:39;;;;;;;;;;;;;;;25.35;46.49;101883.13;4952437;29;19950;-76
2023/08/11 00:45:05;;;;;;;;;;;;;;;25.33;46.81;101881.81;4967352;28;20382;-73
2023/08/11 00:47:31;;;;;;;;;;;;;;;25.30;46.81;101882.41;4952953;28;19937;-74
2023/08/11 00:49:56;;;;;;;;;;;;;;;25.28;46.84;101879.97;4953829;29;20827;-72
2023/08/11 00:52:21;;;;;;;;;;;;;;;25.25;46.62;101884.19;4951722;29;20374;-75
2023/08/11 00:54:47;;;;;;;;;;;;;;;25.22;46.88;101879.31;4963663;28;20017;-75
2023/08/11 00:57:13;;;;;;;;;;;;;;;25.21;46.92;101879.59;4952989;29;19922;-73
2023/08/11 00:59:39;;;;;;;;;;;;;;;25.19;46.66;101870.81;4953951;29;19918;-81
2023/08/11 01:02:04;;;;;;;;;;;;;;;25.17;46.97;101870.28;4951576;28;20326;-76
2023/08/11 01:04:30;;;;;;;;;;;;;;;25.13;46.48;101864.56;4952722;29;19922;-74
2023/08/11 01:07:12;;;;;;;;;;;;;;;25.11;46.46;101860.47;4951705;29;20275;-73
2023/08/11 01:09:41;;;;;;;;;;;;;;;25.08;46.91;101855.56;4938001;29;19922;-76
2023/08/11 01:12:25;;;;;;;;;;;;;;;25.05;46.75;101862.56;4950450;29;19914;-75
2023/08/11 01:14:52;;;;;;;;;;;;;;;25.03;46.55;101856.50;4953142;29;19990;-74
2023/08/11 01:17:18;;;;;;;;;;;;;;;25.00;46.73;101857.97;4951165;29;19925;-75
2023/08/11 01:19:44;;;;;;;;;;;;;;;24.98;46.57;101853.88;4951031;29;19923;-78
2023/08/11 01:22:18;;;;;;;;;;;;;;;24.95;46.56;101852.56;4950358;29;19922;-76
2023/08/11 01:24:44;;;;;;;;;;;;;;;24.93;46.67;101856.75;4952933;28;19921;-80
2023/08/11 01:27:10;;;;;;;;;;;;;;;24.91;47.00;101859.03;4952195;28;20005;-75
2023/08/11 01:29:35;;;;;;;;;;;;;;;24.89;46.74;101855.75;4943582;28;20018;-75
2023/08/11 01:32:00;;;;;;;;;;;;;;;24.87;46.66;101863.53;4951421;29;19965;-79
2023/08/11 01:34:26;;;;;;;;;;;;;;;24.84;46.89;101862.19;4952425;28;19918;-74
2023/08/11 01:36:57;;;;;;;;;;;;;;;24.82;46.94;101858.94;4952124;29;19972;-74
2023/08/11 01:39:23;;;;;;;;;;;;;;;24.79;46.75;101854.84;4951877;28;19918;-74
2023/08/11 01:41:48;;;;;;;;;;;;;;;24.77;46.99;101846.06;4949468;29;19926;-75
2023/08/11 01:44:13;;;;;;;;;;;;;;;24.74;46.66;101843.91;4952853;29;20299;-79
2023/08/11 01:46:40;;;;;;;;;;;;;;;24.72;46.87;101848.13;4953371;29;20355;-74
2023/08/11 01:49:05;;;;;;;;;;;;;;;24.70;46.79;101842.13;4949987;29;20098;-73
2023/08/11 01:51:30;;;;;;;;;;;;;;;24.68;47.04;101844.38;4950605;28;20387;-75
2023/08/11 01:53:56;;;;;;;;;;;;;;;24.65;46.94;101839.47;4938542;28;19930;-74
2023/08/11 01:56:21;;;;;;;;;;;;;;;24.63;46.73;101833.44;4951355;29;19926;-74
2023/08/11 01:58:47;;;;;;;;;;;;;;;24.60;46.65;101840.41;4948640;29;19923;-80
2023/08/11 02:01:13;;;;;;;;;;;;;;;24.57;47.05;101828.03;4946515;28;19922;-75
2023/08/11 02:03:38;;;;;;;;;;;;;;;24.55;47.09;101833.03;4928772;29;19930;-72
2023/08/11 02:06:04;;;;;;;;;;;;;;;24.53;46.79;101835.28;4947619;28;19918;-74
2023/08/11 02:08:29;;;;;;;;;;;;;;;24.51;47.09;101832.00;4951218;28;20367;-73
2023/08/11 02:10:54;;;;;;;;;;;;;;;24.49;46.96;101836.22;4942185;28;19925;-75
2023/08/11 02:13:20;;;;;;;;;;;;;;;24.47;47.10;101838.47;4949034;28;19922;-74
2023/08/11 02:15:45;;;;;;;;;;;;;;;24.44;46.86;101847.34;4956301;29;19929;-75
2023/08/11 02:18:10;;;;;;;;;;;;;;;24.40;46.87;101842.44;4954645;28;19973;-73
2023/08/11 02:20:36;;;;;;;;;;;;;;;24.39;47.00;101851.88;4956460;29;20009;-77
2023/08/11 02:23:02;;;;;;;;;;;;;;;24.37;46.79;101856.06;4954283;29;19981;-73
2023/08/11 02:25:28;;;;;;;;;;;;;;;24.34;47.17;101854.75;4954048;28;20351;-75
2023/08/11 02:27:53;;;;;;;;;;;;;;;24.33;47.02;101849.53;4955884;28;20001;-74
2023/08/11 02:30:18;;;;;;;;;;;;;;;24.30;46.87;101850.97;4956860;28;19938;-74
2023/08/11 02:32:47;;;;;;;;;;;;;;;24.28;47.24;101844.09;4953653;29;20017;-74
2023/08/11 02:35:12;;;;;;;;;;;;;;;24.26;47.28;101846.34;4955319;28;20009;-74
2023/08/11 02:37:39;;;;;;;;;;;;;;;24.24;46.98;101845.84;4955160;28;20029;-74
2023/08/11 02:40:08;;;;;;;;;;;;;;;24.21;47.28;101840.94;4955334;28;20387;-74
2023/08/11 02:42:33;;;;;;;;;;;;;;;24.19;46.87;101849.53;4967432;28;19989;-74
2023/08/11 02:44:59;;;;;;;;;;;;;;;24.16;47.03;101845.44;4938910;29;19918;-72
2023/08/11 02:47:24;;;;;;;;;;;;;;;24.14;46.94;101838.59;4955066;29;19969;-75
2023/08/11 02:49:49;;;;;;;;;;;;;;;24.11;46.88;101834.50;4955611;29;20385;-72
2023/08/11 02:52:14;;;;;;;;;;;;;;;24.10;46.90;101837.59;4954553;29;19922;-73
2023/08/11 02:54:39;;;;;;;;;;;;;;;24.07;47.27;101841.78;4954613;28;19922;-74
2023/08/11 02:57:05;;;;;;;;;;;;;;;24.05;47.22;101835.75;4954062;29;19922;-74
2023/08/11 02:59:31;;;;;;;;;;;;;;;24.03;47.25;101834.41;4953658;29;19922;-74
2023/08/11 03:01:56;;;;;;;;;;;;;;;24.02;47.38;101838.31;4954013;28;19922;-75
2023/08/11 03:04:21;;;;;;;;;;;;;;;23.98;47.31;101847.19;4955979;29;19984;-74
2023/08/11 03:06:47;;;;;;;;;;;;;;;23.96;47.23;101845.84;4956170;29;20256;-74
2023/08/11 03:09:13;;;;;;;;;;;;;;;23.94;47.33;101837.91;4951785;28;19966;-78
2023/08/11 03:11:38;;;;;;;;;;;;;;;23.92;47.27;101831.06;4954546;28;19980;-74
2023/08/11 03:14:03;;;;;;;;;;;;;;;23.90;46.93;101839.63;4955181;28;19922;-76
2023/08/11 03:16:31;;;;;;;;;;;;;;;23.88;47.42;101832.78;4953400;29;19922;-72
2023/08/11 03:18:56;;;;;;;;;;;;;;;23.85;47.33;101836.97;4953536;28;19922;-78
2023/08/11 03:21:21;;;;;;;;;;;;;;;23.83;47.25;101828.19;4953347;29;21810;-75
2023/08/11 03:23:47;;;;;;;;;;;;;;;23.80;47.50;101831.56;4955173;28;20363;-75
2023/08/11 03:26:13;;;;;;;;;;;;;;;23.79;47.43;101831.84;4952135;29;20017;-74
2023/08/11 03:28:38;;;;;;;;;;;;;;;23.76;47.22;101827.75;4953892;29;19919;-75
2023/08/11 03:31:05;;;;;;;;;;;;;;;23.74;47.37;101830.03;4954155;28;20363;-74
2023/08/11 03:33:30;;;;;;;;;;;;;;;23.72;47.47;101827.56;4955129;29;19923;-73
2023/08/11 03:35:55;;;;;;;;;;;;;;;23.69;47.37;101825.41;4954642;29;19918;-80
2023/08/11 03:38:21;;;;;;;;;;;;;;;23.68;47.58;101820.16;4954374;29;20279;-75
2023/08/11 03:40:47;;;;;;;;;;;;;;;23.65;47.68;101821.59;4935346;29;19919;-76
2023/08/11 03:43:12;;;;;;;;;;;;;;;23.64;47.75;101816.41;4954196;29;20017;-73
2023/08/11 03:45:37;;;;;;;;;;;;;;;23.61;47.19;101828.03;4955383;29;19927;-75
2023/08/11 03:48:03;;;;;;;;;;;;;;;23.59;47.49;101822.81;4951924;29;20290;-79
2023/08/11 03:50:28;;;;;;;;;;;;;;;23.56;47.28;101831.69;4954406;29;19925;-75
2023/08/11 03:52:53;;;;;;;;;;;;;;;23.55;47.60;101824.56;4954325;29;19974;-74
2023/08/11 03:55:18;;;;;;;;;;;;;;;23.53;47.70;101829.53;4953216;29;19926;-81
2023/08/11 03:57:45;;;;;;;;;;;;;;;23.51;47.73;101829.03;4953943;29;20401;-75
2023/08/11 04:00:14;;;;;;;;;;;;;;;23.48;47.83;101824.13;4953966;29;19926;-78
2023/08/11 04:02:40;;;;;;;;;;;;;;;23.45;47.29;101822.78;4953313;29;19926;-77
2023/08/11 04:05:05;;;;;;;;;;;;;;;23.44;47.58;101823.13;4953071;28;20415;-74
2023/08/11 04:07:31;;;;;;;;;;;;;;;23.42;47.31;101822.59;4954463;29;19933;-74
2023/08/11 04:09:58;;;;;;;;;;;;;;;23.39;47.59;101821.25;4954298;28;19961;-75
2023/08/11 04:12:23;;;;;;;;;;;;;;;23.38;47.49;101816.03;4950032;28;19929;-75
2023/08/11 04:14:48;;;;;;;;;;;;;;;23.36;47.81;101818.28;4954290;28;20013;-74
2023/08/11 04:17:16;;;;;;;;;;;;;;;23.34;47.80;101821.34;4936241;28;19962;-74
2023/08/11 04:19:41;;;;;;;;;;;;;;;23.30;47.60;101810.09;4953794;29;20017;-74
2023/08/11 04:22:07;;;;;;;;;;;;;;;23.28;47.58;101817.03;4952654;28;20458;-74
2023/08/11 04:24:32;;;;;;;;;;;;;;;23.25;47.83;101807.44;4951821;28;19930;-73
2023/08/11 04:26:57;;;;;;;;;;;;;;;23.24;48.01;101810.50;4955103;29;20280;-76
2023/08/11 04:29:22;;;;;;;;;;;;;;;23.21;47.97;101803.66;4953037;29;19938;-75
2023/08/11 04:31:48;;;;;;;;;;;;;;;23.19;47.96;101807.84;4949234;29;19922;-75
2023/08/11 04:34:14;;;;;;;;;;;;;;;23.18;48.02;101803.44;4951961;29;19945;-75
2023/08/11 04:36:39;;;;;;;;;;;;;;;23.15;47.72;101802.09;4954181;28;19958;-75
2023/08/11 04:39:05;;;;;;;;;;;;;;;23.12;48.05;101805.47;4951776;29;20013;-75
2023/08/11 04:41:31;;;;;;;;;;;;;;;23.10;47.93;101802.19;4954090;29;19918;-75
2023/08/11 04:43:57;;;;;;;;;;;;;;;23.09;47.68;101798.63;4952797;29;19929;-74
2023/08/11 04:46:23;;;;;;;;;;;;;;;23.06;47.97;101798.41;4953106;28;20008;-73
2023/08/11 04:48:48;;;;;;;;;;;;;;;23.04;47.97;101793.19;4949603;29;20094;-74
2023/08/11 04:51:13;;;;;;;;;;;;;;;23.03;48.09;101793.50;4952437;29;19959;-73
2023/08/11 04:53:38;;;;;;;;;;;;;;;23.00;47.69;101794.91;4953442;28;19922;-74
2023/08/11 04:56:04;;;;;;;;;;;;;;;22.99;48.13;101793.28;4951134;28;19922;-83
2023/08/11 04:58:29;;;;;;;;;;;;;;;22.98;48.08;101791.66;4953402;29;19926;-75
2023/08/11 05:00:54;;;;;;;;;;;;;;;22.96;47.79;101784.78;4952587;29;19923;-76
2023/08/11 05:03:20;;;;;;;;;;;;;;;22.94;48.09;101785.06;4951205;29;19966;-74
2023/08/11 05:05:45;;;;;;;;;;;;;;;22.93;48.02;101782.59;4951566;28;20351;-74
2023/08/11 05:08:10;;;;;;;;;;;;;;;22.92;48.01;101783.75;4953564;28;19918;-74
2023/08/11 05:10:36;;;;;;;;;;;;;;;22.89;48.15;101782.41;4951273;28;19958;-75
2023/08/11 05:13:01;;;;;;;;;;;;;;;22.87;48.01;101782.69;4953035;29;20346;-74
2023/08/11 05:15:26;;;;;;;;;;;;;;;22.86;47.79;101783.81;4951742;29;19922;-75
2023/08/11 05:17:51;;;;;;;;;;;;;;;22.86;48.34;101783.00;4951097;29;20012;-74
2023/08/11 05:20:17;;;;;;;;;;;;;;;22.84;48.35;101785.25;4953344;29;19919;-76
2023/08/11 05:22:43;;;;;;;;;;;;;;;22.83;48.34;101784.44;4950827;29;19926;-76
2023/08/11 05:25:09;;;;;;;;;;;;;;;22.82;48.34;101788.28;4950953;28;19923;-80
2023/08/11 05:27:34;;;;;;;;;;;;;;;22.80;48.42;101786.94;4952007;29;19940;-74
2023/08/11 05:30:00;;;;;;;;;;;;;;;22.78;48.39;101787.28;4952671;29;20316;-73
2023/08/11 05:32:26;;;;;;;;;;;;;;;22.78;48.28;101783.66;4952546;29;19968;-75
2023/08/11 05:34:52;;;;;;;;;;;;;;;22.77;48.01;101785.63;4952760;28;19945;-78
2023/08/11 05:37:17;;;;;;;;;;;;;;;22.77;48.35;101787.56;4946527;28;20000;-75
2023/08/11 05:39:42;;;;;;;;;;;;;;;22.75;48.32;101787.84;4968574;28;19922;-76
2023/08/11 05:42:08;;;;;;;;;;;;;;;22.75;48.30;101787.84;4952563;29;21892;-80
2023/08/11 05:44:33;;;;;;;;;;;;;;;22.75;48.49;101787.03;4950998;28;19926;-74
2023/08/11 05:46:59;;;;;;;;;;;;;;;22.74;48.29;101791.72;4948294;28;19949;-74
2023/08/11 05:49:24;;;;;;;;;;;;;;;22.74;48.59;101794.47;4952412;29;19926;-74
2023/08/11 05:51:50;;;;;;;;;;;;;;;22.73;48.49;101795.63;4955211;29;19922;-75
2023/08/11 05:54:15;;;;;;;;;;;;;;;22.73;48.61;101798.38;4954651;28;20415;-73
2023/08/11 05:56:40;;;;;;;;;;;;;;;22.73;48.56;101792.84;4955994;29;19922;-75
2023/08/11 05:59:05;;;;;;;;;;;;;;;22.73;48.38;101794.78;4954761;29;19918;-76
2023/08/11 06:01:31;;;;;;;;;;;;;;;22.73;48.34;101789.25;4955312;29;19923;-76
2023/08/11 06:03:57;;;;;;;;;;;;;;;22.73;48.74;101790.09;4956244;28;19918;-76
2023/08/11 06:06:22;;;;;;;;;;;;;;;22.73;48.29;101792.00;4956712;29;20298;-73
2023/08/11 06:08:47;;;;;;;;;;;;;;;22.74;48.38;101785.41;4931394;28;20001;-75
2023/08/11 06:11:13;;;;;;;;;;;;;;;22.73;48.68;101786.50;4955924;28;20378;-81
2023/08/11 06:13:38;;;;;;;;;;;;;;;22.72;48.42;101793.97;4971057;28;20009;-76
2023/08/11 06:16:03;;;;;;;;;;;;;;;22.72;48.66;101791.22;4956378;28;19919;-74
2023/08/11 06:18:29;;;;;;;;;;;;;;;22.74;48.33;101793.66;4950561;28;19951;-80
2023/08/11 06:20:54;;;;;;;;;;;;;;;22.73;48.56;101794.78;4951044;29;20290;-74
2023/08/11 06:23:19;;;;;;;;;;;;;;;22.73;48.62;101795.63;4954648;29;19926;-74
2023/08/11 06:25:45;;;;;;;;;;;;;;;22.74;48.71;101796.44;4956890;29;19919;-74
2023/08/11 06:28:10;;;;;;;;;;;;;;;22.76;48.97;101799.69;4954827;29;19938;-74
2023/08/11 06:30:35;;;;;;;;;;;;;;;22.76;48.60;101795.00;4946872;28;19949;-75
2023/08/11 06:33:01;;;;;;;;;;;;;;;22.77;48.73;101795.81;4943744;29;19932;-76
2023/08/11 06:35:26;;;;;;;;;;;;;;;22.78;48.90;101802.94;4954539;29;19929;-75
2023/08/11 06:37:52;;;;;;;;;;;;;;;22.77;48.57;101799.38;4953157;28;20290;-75
2023/08/11 06:40:17;;;;;;;;;;;;;;;22.78;48.45;101806.56;4955852;29;20359;-77
2023/08/11 06:42:42;;;;;;;;;;;;;;;22.77;48.82;101799.38;4954331;29;20313;-76
2023/08/11 06:45:08;;;;;;;;;;;;;;;22.77;48.88;101804.09;4954151;28;20006;-77
2023/08/11 06:47:33;;;;;;;;;;;;;;;22.76;48.66;101803.28;4954072;29;20279;-76
2023/08/11 06:49:59;;;;;;;;;;;;;;;22.75;48.60;101809.06;4948415;28;19922;-77
2023/08/11 06:52:24;;;;;;;;;;;;;;;22.74;48.67;101805.50;4948290;29;20371;-81
2023/08/11 06:54:49;;;;;;;;;;;;;;;22.74;49.04;101808.25;4949689;28;19922;-79
2023/08/11 06:57:17;;;;;;;;;;;;;;;22.75;49.35;101811.81;4956488;29;20018;-82
2023/08/11 06:59:42;;;;;;;;;;;;;;;22.75;49.03;101809.88;4947736;28;19918;-76
2023/08/11 07:02:08;;;;;;;;;;;;;;;22.74;49.18;101813.75;4955325;29;20371;-75
2023/08/11 07:04:33;;;;;;;;;;;;;;;22.76;49.40;101810.72;4952945;28;19966;-75
2023/08/11 07:06:59;;;;;;;;;;;;;;;22.78;48.97;101811.22;4954367;28;20001;-74
2023/08/11 07:09:24;;;;;;;;;;;;;;;22.80;49.53;101811.75;4952877;29;20013;-76
2023/08/11 07:11:49;;;;;;;;;;;;;;;22.83;49.21;101813.88;4953283;28;19930;-75
2023/08/11 07:14:15;;;;;;;;;;;;;;;22.86;49.54;101819.63;4954600;29;19919;-73
2023/08/11 07:16:40;;;;;;;;;;;;;;;22.87;49.15;101814.94;4952982;29;19946;-74
2023/08/11 07:19:05;;;;;;;;;;;;;;;22.87;49.35;101810.25;4953373;29;19922;-76
2023/08/11 07:21:31;;;;;;;;;;;;;;;22.89;49.24;101815.47;4953897;28;19934;-77
2023/08/11 07:23:56;;;;;;;;;;;;;;;22.93;49.47;101812.91;4970173;28;19929;-74
2023/08/11 07:26:21;;;;;;;;;;;;;;;22.94;49.72;101809.88;4953026;28;19923;-75
2023/08/11 07:28:47;;;;;;;;;;;;;;;22.96;49.87;101815.91;4953475;28;19958;-78
2023/08/11 07:31:12;;;;;;;;;;;;;;;23.00;49.60;101813.38;4968989;28;19926;-74
2023/08/11 07:33:39;;;;;;;;;;;;;;;23.01;49.85;101812.28;4954035;29;20009;-74
2023/08/11 07:36:05;;;;;;;;;;;;;;;23.04;49.92;101808.91;4966920;28;20001;-76
2023/08/11 07:38:30;;;;;;;;;;;;;;;23.07;49.81;101813.81;4954935;28;20395;-75
2023/08/11 07:40:55;;;;;;;;;;;;;;;23.10;49.75;101811.28;4952539;29;19922;-75
2023/08/11 07:43:20;;;;;;;;;;;;;;;23.15;49.83;101818.63;4952475;28;19922;-81
2023/08/11 07:45:46;;;;;;;;;;;;;;;23.19;49.79;101803.16;4947791;28;20017;-76
2023/08/11 07:48:11;;;;;;;;;;;;;;;23.23;50.14;101808.84;4945646;29;19926;-77
2023/08/11 07:50:36;;;;;;;;;;;;;;;23.26;49.94;101806.34;4952777;29;19930;-73
2023/08/11 07:53:02;;;;;;;;;;;;;;;23.31;50.16;101809.00;4950542;29;20371;-76
2023/08/11 07:55:28;;;;;;;;;;;;;;;23.37;50.12;101808.91;4952301;29;20248;-74
2023/08/11 07:57:53;;;;;;;;;;;;;;;23.42;50.12;101811.56;4952717;29;20346;-74
2023/08/11 08:00:21;;;;;;;;;;;;;;;23.47;50.59;101811.47;4952485;28;19929;-79
2023/08/11 08:02:46;;;;;;;;;;;;;;;23.52;50.24;101808.63;4944092;29;19923;-75
2023/08/11 08:05:12;;;;;;;;;;;;;;;23.58;50.47;101812.91;4944168;29;19915;-73
2023/08/11 08:07:37;;;;;;;;;;;;;;;23.64;50.31;101799.84;4953820;29;19945;-75
2023/08/11 08:10:08;;;;;;;;;;;;;;;23.69;50.56;101808.03;4954243;28;19930;-76
2023/08/11 08:12:33;;;;;;;;;;;;;;;23.77;51.03;101803.78;4950661;29;20282;-76
2023/08/11 08:14:58;;;;;;;;;;;;;;;23.83;50.32;101816.31;4953670;29;19919;-74
2023/08/11 08:17:25;;;;;;;;;;;;;;;23.88;50.59;101822.56;4953579;29;20331;-81
2023/08/11 08:19:50;;;;;;;;;;;;;;;23.95;50.66;101819.41;4952031;28;19926;-76
2023/08/11 08:22:15;;;;;;;;;;;;;;;24.02;50.59;101819.81;4953168;29;20302;-75
2023/08/11 08:24:40;;;;;;;;;;;;;;;24.09;51.00;101817.44;4950010;29;20013;-75
2023/08/11 08:27:06;;;;;;;;;;;;;;;24.17;50.79;101816.72;4954737;29;19918;-66
2023/08/11 08:29:33;;;;;;;;;;;;;;;24.24;50.64;101819.06;4952901;29;19922;-69
2023/08/11 08:31:59;;;;;;;;;;;;;;;24.32;50.64;101817.53;4952856;28;20335;-69
2023/08/11 08:34:24;;;;;;;;;;;;;;;24.40;50.53;101814.03;4951482;29;20017;-69
2023/08/11 08:36:50;;;;;;;;;;;;;;;24.48;50.54;101816.06;4952489;28;19922;-70
2023/08/11 08:39:15;;;;;;;;;;;;;;;24.58;50.30;101807.53;4953847;29;19919;-73
2023/08/11 08:41:44;;;;;;;;;;;;;;;24.67;50.43;101813.16;4954067;29;20005;-68
2023/08/11 08:44:10;;;;;;;;;;;;;;;24.76;50.72;101802.97;4950586;28;19915;-68
2023/08/11 08:46:36;;;;;;;;;;;;;;;24.88;50.26;101812.66;4953129;28;20073;-71
2023/08/11 08:49:06;;;;;;;;;;;;;;;24.96;50.47;101809.94;4952645;29;19919;-71
2023/08/11 08:51:31;;;;;;;;;;;;;;;25.07;50.28;101809.69;4948049;28;20364;-72
2023/08/11 08:53:56;;;;;;;;;;;;;;;25.16;50.63;101808.66;4953389;29;19926;-77
2023/08/11 08:56:22;;;;;;;;;;;;;;;25.26;50.35;101805.63;4959984;28;19914;-74
2023/08/11 08:59:22;;;;;;;340.75;326.95;;;;;;;26.09;48.44;101810.53;5077445;27;1285054;-76
2023/08/11 09:01:50;;;;;;;392.52;377.52;;;;;;;26.52;47.18;101806.19;5099166;28;20146;-74
2023/08/11 09:04:16;;;;;;;426.85;410.50;;;;;;;26.77;46.51;101805.41;5104343;28;20369;-82
2023/08/11 09:06:42;;;;;;;440.80;423.95;;;;;;;26.96;46.61;101805.06;5089410;28;20499;-70
2023/08/11 09:09:09;;;;;;;448.17;430.60;;;;;;;27.10;46.70;101802.09;5107812;28;20493;-70
2023/08/11 09:11:34;;;;;;;445.55;428.77;;;;;;;27.19;46.21;101805.72;5115422;28;20039;-70
2023/08/11 09:14:07;;;;;;;436.90;420.15;;;;;;;27.28;46.64;101805.66;5106072;28;20082;-68
2023/08/11 09:16:37;;;;;;;445.27;428.45;;;;;;;27.36;46.57;101801.22;5098501;28;20027;-69
2023/08/11 09:19:10;;;;;;;437.23;420.20;;;;;;;27.42;46.66;101799.94;5108214;28;20036;-73
2023/08/11 09:21:35;;;;;;;442.85;426.02;;;;;;;27.50;46.47;101806.59;5102724;28;20032;-69
2023/08/11 09:24:01;;;;;;;461.85;444.35;;;;;;;27.54;46.63;101797.28;5120421;28;20031;-70
2023/08/11 09:26:27;;;;;;;477.35;459.40;;;;;;;27.60;46.78;101801.47;5106536;28;20392;-71
2023/08/11 09:28:53;;;;;;;485.13;466.95;;;;;;;27.65;46.75;101797.72;5101156;28;20036;-70
2023/08/11 09:31:22;;;;;;;484.63;466.13;;;;;;;27.72;46.66;101803.56;5107104;28;20031;-69
2023/08/11 09:33:49;;;;;;;527.67;507.67;;;;;;;27.79;47.05;101794.69;5103269;28;20024;-70
2023/08/11 09:36:17;;;;;;;519.13;499.60;;;;;;;27.83;47.03;101792.91;5119051;27;20048;-71
2023/08/11 09:38:43;;;;;;;511.27;492.08;;;;;;;27.89;47.25;101793.53;5098114;28;20091;-70
2023/08/11 09:41:10;;;;;;;526.55;506.30;;;;;;;27.95;46.98;101790.22;5101824;28;20472;-69
2023/08/11 09:43:36;;;;;;;549.65;528.80;;;;;;;28.01;47.07;101793.63;5102060;28;20040;-67
2023/08/11 09:46:01;;;;;;;553.03;532.25;;;;;;;28.07;47.32;101791.47;5103433;28;20040;-69
2023/08/11 09:48:27;;;;;;;579.90;557.75;;;;;;;28.13;47.17;101796.50;5107157;28;20074;-69
2023/08/11 09:50:53;;;;;;;589.67;567.20;;;;;;;28.20;47.25;101802.31;5105161;28;20339;-71
2023/08/11 09:53:22;;;;;;;624.58;600.72;;;;;;;28.27;47.05;101799.00;5106821;28;20040;-71
2023/08/11 09:55:49;;;;;;;632.67;608.17;;;;;;;28.33;46.94;101808.78;5103884;28;20169;-71
2023/08/11 09:58:17;;;;;;;651.97;626.83;;;;;;;28.40;46.67;101809.06;5104952;28;20507;-73
2023/08/11 10:00:45;;;;;;;675.65;649.13;;;;;;;28.45;46.74;101794.97;5097032;28;20078;-70
2023/08/11 10:03:16;;;;;;;722.38;693.63;;;;;;;28.51;46.64;101809.47;5106357;28;20118;-69
2023/08/11 10:05:42;;;;;;;756.20;725.40;;;;;;;28.57;46.61;101798.97;5103407;28;20071;-71
2023/08/11 10:08:17;;;;;;;767.00;735.58;;;;;;;28.64;46.71;101790.88;5105475;28;20036;-73
2023/08/11 10:10:43;;;;;;;773.08;741.22;;;;;;;28.71;46.63;101798.69;5089944;28;20060;-73
2023/08/11 10:13:14;;;;;;;788.30;755.25;;;;;;;28.77;46.68;101802.88;5100203;28;20028;-70
2023/08/11 10:15:40;;;;;;;797.33;763.33;;;;;;;28.83;47.15;101798.75;5081881;28;20032;-72
2023/08/11 10:18:06;;;;;;;805.30;770.85;;;;;;;28.89;46.80;101795.38;5091844;28;20028;-72
2023/08/11 10:20:32;;;;;;;806.60;771.90;;;;;;;28.97;46.74;101806.78;5089349;28;20065;-71
2023/08/11 10:23:01;;;;;;;815.97;780.50;;;;;;;29.01;46.79;101797.41;5091771;28;20043;-71
2023/08/11 10:25:27;;;;;;;816.25;780.67;;;;;;;29.09;47.03;101798.50;5092975;28;20122;-71
2023/08/11 10:27:54;;;;;;;804.75;770.13;;;;;;;29.15;46.91;101793.53;5092559;28;20043;-71
2023/08/11 10:30:20;;;;;;;807.83;772.95;;;;;;;29.22;47.10;101799.34;5092615;28;20039;-70
2023/08/11 10:32:45;;;;;;;823.60;787.25;;;;;;;29.26;46.87;101795.53;5084550;28;20036;-71
2023/08/11 10:35:19;;;;;;;834.10;796.55;;;;;;;29.32;47.05;101796.91;5081298;28;20093;-70
2023/08/11 10:37:55;;;;;;;832.50;795.08;;;;;;;29.38;46.78;101800.28;5092134;28;20036;-70
2023/08/11 10:40:20;;;;;;;844.70;805.45;;;;;;;29.44;47.00;101800.91;5094648;28;20028;-70
2023/08/11 10:42:46;;;;;;;858.17;817.60;;;;;;;29.50;47.00;101796.72;5088638;28;20422;-70
2023/08/11 10:45:13;;;;;;;858.95;818.20;;;;;;;29.55;46.74;101790.91;5093687;28;20032;-70
2023/08/11 10:47:50;;;;;;;850.55;811.03;;;;;;;29.61;47.24;101783.13;5089401;28;20028;-71
2023/08/11 10:50:17;;;;;;;854.35;814.33;;;;;;;29.65;47.32;101781.28;5082638;28;20062;-69
2023/08/11 10:52:42;;;;;;;852.33;812.58;;;;;;;29.71;47.09;101789.09;5084068;28;20040;-70
2023/08/11 10:55:09;;;;;;;881.30;837.33;;;;;;;29.78;47.28;101785.72;5088800;28;20035;-72
2023/08/11 10:57:35;;;;;;;872.22;829.65;;;;;;;29.82;46.95;101791.44;5077577;28;20059;-70
2023/08/11 11:00:00;;;;;;;890.20;844.92;;;;;;;29.86;46.87;101793.16;5084834;28;20032;-71
2023/08/11 11:02:26;;;;;;;881.42;837.33;;;;;;;29.92;46.83;101797.31;5090718;28;20399;-71
2023/08/11 11:04:52;;;;;;;883.45;839.25;;;;;;;29.96;47.02;101789.91;5086889;28;20044;-71
2023/08/11 11:07:22;;;;;;;911.28;862.38;;;;;;;30.01;46.93;101794.41;5091114;28;20102;-71
2023/08/11 11:09:47;;;;;;;911.65;862.67;;;;;;;30.07;47.13;101795.00;5086758;28;20111;-71
2023/08/11 11:12:14;;;;;;;902.15;854.67;;;;;;;30.11;47.05;101795.91;5086351;28;20103;-71
2023/08/11 11:14:39;;;;;;;910.05;861.50;;;;;;;30.16;46.67;101795.66;5082493;28;20035;-71
2023/08/11 11:17:06;;;;;;;913.70;864.53;;;;;;;30.20;46.89;101797.41;5088150;28;20032;-71
2023/08/11 11:19:31;;;;;;;907.35;859.08;;;;;;;30.25;47.14;101787.22;5088811;28;20097;-71
2023/08/11 11:21:58;;;;;;;902.25;854.97;;;;;;;30.29;46.70;101790.91;5077701;28;20424;-71
2023/08/11 11:24:25;;;;;;;903.38;856.03;;;;;;;30.33;46.69;101794.63;5082560;28;20032;-71
2023/08/11 11:26:51;;;;;;;908.50;860.15;;;;;;;30.38;45.79;101791.59;5088096;28;20040;-72
2023/08/11 11:29:21;;;;;;;919.38;869.10;;;;;;;30.41;46.54;101788.88;5082135;28;20066;-71
2023/08/11 11:31:47;;;;;;;923.25;871.45;;;;;;;30.46;46.05;101792.59;5089129;28;20032;-70
2023/08/11 11:34:14;;;;;;;954.42;897.67;;;;;;;30.48;46.24;101785.50;5088877;28;20047;-70
2023/08/11 11:36:39;;;;;;;1050.38;965.03;;;;;;;30.53;46.26;101790.03;5101546;27;20040;-70
2023/08/11 11:39:05;;;;;;;390.35;375.60;;;;;;;30.55;46.38;101782.94;5089903;28;20102;-70
2023/08/11 11:41:30;;;;;;;365.20;351.38;;;;;;;30.60;46.55;101784.66;5088348;28;20066;-70
2023/08/11 11:43:56;;;;;;;362.92;349.05;;;;;;;30.63;46.26;101781.16;5089570;28;20875;-68
2023/08/11 11:46:22;;;;;;;350.15;336.80;;;;;;;30.66;46.39;101774.06;5072935;28;20032;-69
2023/08/11 11:48:53;;;;;;;345.30;332.00;;;;;;;30.71;46.21;101787.75;5089537;28;20178;-69
2023/08/11 11:51:29;;;;;;;339.45;326.38;;;;;;;30.75;46.60;101791.47;5088025;28;20523;-69
2023/08/11 11:53:58;;;;;;;334.17;321.33;;;;;;;30.77;46.76;101784.34;5087530;28;20067;-69
2023/08/11 11:56:27;;;;;;;328.75;316.17;;;;;;;30.81;46.87;101796.41;5087523;28;20032;-69
2023/08/11 11:58:52;;;;;;;329.85;316.98;;;;;;;30.85;46.52;101788.19;5094811;28;20044;-69
2023/08/11 12:01:20;;;;;;;330.52;317.75;;;;;;;30.89;46.37;101788.25;5089652;28;20057;-69
2023/08/11 12:03:49;;;;;;;325.42;312.98;;;;;;;30.92;46.61;101793.13;5075984;28;20055;-69